createdAt,value
2019-01-24T00:00:10.229Z,22.30
2019-01-24T00:02:38.490Z,22.30
2019-01-24T00:05:07.671Z,22.30
2019-01-24T00:07:35.921Z,22.30
2019-01-24T00:10:07.656Z,22.30
2019-01-24T00:12:35.913Z,22.30
2019-01-24T00:15:06.958Z,22.20
2019-01-24T00:17:35.206Z,22.30
2019-01-24T00:20:05.781Z,22.20
2019-01-24T00:22:34.042Z,22.20
2019-01-24T00:25:02.283Z,22.20
2019-01-24T00:27:30.535Z,22.20
2019-01-24T00:29:58.773Z,22.20
2019-01-24T00:32:27.128Z,22.20
2019-01-24T00:34:55.370Z,22.20
2019-01-24T00:37:23.612Z,22.20
2019-01-24T00:39:51.857Z,22.20
2019-01-24T00:42:20.121Z,22.20
2019-01-24T00:44:48.370Z,22.20
2019-01-24T00:47:16.638Z,22.20
2019-01-24T00:49:44.865Z,22.20
2019-01-24T00:52:13.109Z,22.10
2019-01-24T00:54:41.351Z,22.10
2019-01-24T00:57:09.584Z,22.10
2019-01-24T00:59:37.846Z,22.10
2019-01-24T01:02:06.085Z,22.10
2019-01-24T01:04:34.333Z,22.10
2019-01-24T01:07:02.951Z,22.10
2019-01-24T01:09:31.205Z,22.10
2019-01-24T01:11:59.445Z,22.10
2019-01-24T01:14:27.705Z,22.10
2019-01-24T01:16:55.945Z,22.10
2019-01-24T01:19:24.197Z,22.10
2019-01-24T01:21:52.441Z,22.10
2019-01-24T01:24:20.689Z,22.10
2019-01-24T01:26:48.949Z,22.10
2019-01-24T01:29:17.875Z,22.10
2019-01-24T01:31:46.106Z,22.10
2019-01-24T01:34:14.362Z,22.10
2019-01-24T01:36:42.609Z,22.10
2019-01-24T01:39:10.861Z,22.00
2019-01-24T01:41:39.110Z,22.00
2019-01-24T01:44:07.357Z,22.00
2019-01-24T01:46:35.597Z,22.00
2019-01-24T01:49:03.841Z,22.00
2019-01-24T01:51:32.082Z,22.00
2019-01-24T01:54:00.358Z,22.00
2019-01-24T01:56:28.605Z,22.00
2019-01-24T01:58:56.854Z,22.00
2019-01-24T02:01:25.092Z,22.00
2019-01-24T02:03:53.342Z,22.00
2019-01-24T02:06:21.585Z,22.00
2019-01-24T02:08:50.129Z,22.00
2019-01-24T02:11:18.380Z,22.00
2019-01-24T02:13:46.649Z,22.00
2019-01-24T02:16:14.881Z,22.00
2019-01-24T02:18:43.137Z,22.00
2019-01-24T02:21:11.377Z,22.00
2019-01-24T02:23:39.986Z,22.00
2019-01-24T02:26:08.236Z,22.00
2019-01-24T02:28:36.490Z,22.00
2019-01-24T02:31:05.007Z,22.00
2019-01-24T02:33:33.590Z,22.00
2019-01-24T02:36:01.835Z,22.00
2019-01-24T02:38:30.104Z,22.00
2019-01-24T02:40:58.337Z,22.00
2019-01-24T02:43:26.578Z,21.90
2019-01-24T02:45:54.830Z,21.90
2019-01-24T02:48:23.075Z,22.00
2019-01-24T02:50:51.380Z,21.90
2019-01-24T02:53:19.648Z,21.90
2019-01-24T02:55:47.902Z,21.90
2019-01-24T02:58:16.148Z,21.90
2019-01-24T03:00:44.401Z,21.90
2019-01-24T03:03:12.646Z,21.90
2019-01-24T03:05:40.898Z,21.90
2019-01-24T03:08:09.147Z,21.90
2019-01-24T03:10:38.041Z,21.90
2019-01-24T03:13:06.290Z,21.90
2019-01-24T03:15:34.542Z,21.90
2019-01-24T03:18:02.779Z,21.90
2019-01-24T03:20:31.028Z,21.90
2019-01-24T03:22:59.266Z,21.90
2019-01-24T03:25:27.519Z,21.90
2019-01-24T03:27:55.774Z,21.90
2019-01-24T03:30:24.022Z,21.90
2019-01-24T03:32:52.267Z,21.90
2019-01-24T03:35:22.952Z,21.90
2019-01-24T03:37:51.201Z,21.90
2019-01-24T03:40:19.449Z,21.90
2019-01-24T03:42:47.714Z,21.90
2019-01-24T03:45:17.273Z,21.90
2019-01-24T03:47:45.508Z,21.90
2019-01-24T03:50:18.534Z,21.90
2019-01-24T03:52:46.779Z,21.90
2019-01-24T03:55:16.902Z,21.90
2019-01-24T03:57:45.134Z,21.90
2019-01-24T04:00:18.839Z,21.80
2019-01-24T04:02:47.078Z,21.80
2019-01-24T04:05:15.311Z,21.80
2019-01-24T04:07:44.253Z,21.90
2019-01-24T04:10:14.725Z,21.80
2019-01-24T04:12:42.971Z,21.90
2019-01-24T04:15:14.112Z,21.80
2019-01-24T04:17:42.453Z,21.80
2019-01-24T04:20:11.845Z,21.80
2019-01-24T04:22:40.087Z,21.80
2019-01-24T04:25:08.915Z,21.80
2019-01-24T04:27:37.145Z,21.80
2019-01-24T04:30:11.279Z,21.80
2019-01-24T04:32:39.527Z,21.80
2019-01-24T04:35:19.388Z,21.80
2019-01-24T04:37:42.546Z,21.80
2019-01-24T04:40:13.131Z,21.80
2019-01-24T04:42:41.369Z,21.80
2019-01-24T04:45:12.220Z,21.80
2019-01-24T04:47:41.031Z,21.80
2019-01-24T04:50:11.712Z,21.80
2019-01-24T04:52:39.957Z,21.80
2019-01-24T04:55:11.307Z,21.80
2019-01-24T04:57:39.561Z,21.80
2019-01-24T05:00:19.769Z,21.70
2019-01-24T05:02:48.005Z,21.70
2019-01-24T05:05:16.928Z,21.80
2019-01-24T05:07:45.166Z,21.80
2019-01-24T05:10:13.419Z,21.80
2019-01-24T05:12:41.666Z,21.80
2019-01-24T05:15:09.912Z,21.80
2019-01-24T05:17:38.153Z,21.80
2019-01-24T05:20:09.541Z,21.80
2019-01-24T05:22:37.777Z,21.80
2019-01-24T05:25:09.480Z,21.70
2019-01-24T05:27:37.704Z,21.50
2019-01-24T05:30:17.802Z,21.50
2019-01-24T05:32:46.036Z,21.30
2019-01-24T05:35:14.282Z,21.20
2019-01-24T05:37:42.537Z,21.10
2019-01-24T05:40:10.764Z,21.10
2019-01-24T05:42:39.673Z,21.20
2019-01-24T05:45:12.497Z,21.30
2019-01-24T05:47:40.738Z,21.40
2019-01-24T05:50:10.734Z,21.60
2019-01-24T05:52:38.970Z,21.70
2019-01-24T05:55:09.453Z,21.90
2019-01-24T05:57:38.261Z,22.00
2019-01-24T06:00:09.857Z,22.10
2019-01-24T06:02:38.091Z,22.20
2019-01-24T06:05:08.578Z,22.30
2019-01-24T06:07:36.816Z,22.40
2019-01-24T06:10:08.390Z,22.50
2019-01-24T06:12:36.625Z,22.60
2019-01-24T06:15:07.617Z,22.60
2019-01-24T06:17:36.158Z,22.70
2019-01-24T06:20:06.749Z,22.70
2019-01-24T06:22:34.984Z,22.70
2019-01-24T06:25:04.575Z,22.80
2019-01-24T06:27:32.808Z,22.80
2019-01-24T06:30:01.062Z,22.90
2019-01-24T06:32:29.297Z,22.80
2019-01-24T06:34:57.610Z,22.90
2019-01-24T06:37:25.854Z,22.80
2019-01-24T06:39:54.081Z,22.80
2019-01-24T06:42:22.341Z,22.80
2019-01-24T06:44:50.582Z,22.80
2019-01-24T06:47:18.816Z,22.80
2019-01-24T06:49:47.057Z,22.80
2019-01-24T06:52:15.317Z,22.80
2019-01-24T06:54:43.552Z,22.80
2019-01-24T06:57:11.817Z,22.80
2019-01-24T06:59:40.055Z,22.80
2019-01-24T07:02:08.299Z,22.80
2019-01-24T07:04:36.535Z,22.80
2019-01-24T07:07:04.786Z,22.80
2019-01-24T07:09:33.026Z,22.80
2019-01-24T07:12:01.277Z,22.80
2019-01-24T07:14:29.514Z,22.80
2019-01-24T07:16:57.762Z,22.80
2019-01-24T07:19:25.999Z,22.80
2019-01-24T07:21:54.244Z,22.80
2019-01-24T07:24:22.485Z,22.90
2019-01-24T07:26:50.737Z,22.80
2019-01-24T07:29:18.983Z,22.80
2019-01-24T07:31:47.223Z,22.80
2019-01-24T07:34:15.463Z,22.80
2019-01-24T07:36:43.709Z,22.80
2019-01-24T07:39:11.941Z,22.80
2019-01-24T07:41:40.189Z,22.80
2019-01-24T07:44:08.430Z,22.80
2019-01-24T07:46:37.375Z,22.80
2019-01-24T07:49:05.617Z,22.80
2019-01-24T07:51:33.920Z,22.80
2019-01-24T07:54:02.173Z,22.70
2019-01-24T07:56:30.421Z,22.70
2019-01-24T07:58:58.663Z,22.70
2019-01-24T08:01:26.909Z,22.70
2019-01-24T08:03:55.154Z,22.70
2019-01-24T08:06:23.397Z,22.70
2019-01-24T08:08:51.647Z,22.70
2019-01-24T08:11:20.739Z,22.70
2019-01-24T08:13:49.002Z,22.70
2019-01-24T08:16:17.567Z,22.70
2019-01-24T08:18:45.825Z,22.70
2019-01-24T08:21:14.058Z,22.70
2019-01-24T08:23:42.316Z,22.70
2019-01-24T08:26:10.554Z,22.70
2019-01-24T08:28:38.852Z,22.70
2019-01-24T08:31:07.121Z,22.80
2019-01-24T08:33:35.373Z,22.80
2019-01-24T08:36:03.605Z,22.80
2019-01-24T08:38:31.846Z,22.80
2019-01-24T08:41:00.760Z,22.80
2019-01-24T08:43:28.993Z,22.80
2019-01-24T08:45:57.914Z,22.80
2019-01-24T08:48:26.146Z,22.80
2019-01-24T08:50:54.401Z,22.80
2019-01-24T08:53:22.642Z,22.80
2019-01-24T08:55:50.894Z,22.80
2019-01-24T08:58:19.160Z,22.80
2019-01-24T09:00:47.454Z,22.80
2019-01-24T09:03:15.685Z,22.80
2019-01-24T09:05:44.505Z,22.80
2019-01-24T09:08:12.745Z,22.80
2019-01-24T09:10:40.993Z,22.80
2019-01-24T09:13:09.225Z,22.80
2019-01-24T09:15:37.481Z,22.80
2019-01-24T09:18:05.792Z,22.80
2019-01-24T09:20:34.045Z,22.80
2019-01-24T09:23:02.282Z,22.80
2019-01-24T09:25:30.533Z,22.80
2019-01-24T09:27:58.782Z,22.80
2019-01-24T09:30:28.694Z,22.80
2019-01-24T09:32:56.981Z,22.80
2019-01-24T09:35:25.217Z,22.80
2019-01-24T09:37:53.463Z,22.80
2019-01-24T09:40:22.531Z,22.80
2019-01-24T09:42:50.775Z,22.80
2019-01-24T09:45:24.676Z,22.80
2019-01-24T09:47:53.562Z,22.80
2019-01-24T09:50:23.745Z,22.80
2019-01-24T09:52:51.999Z,22.80
2019-01-24T09:55:20.232Z,22.80
2019-01-24T09:57:48.482Z,22.90
2019-01-24T10:00:18.857Z,22.80
2019-01-24T10:02:47.104Z,22.90
2019-01-24T10:05:15.585Z,22.90
2019-01-24T10:07:43.825Z,22.90
2019-01-24T10:10:20.558Z,22.90
2019-01-24T10:12:48.974Z,22.90
2019-01-24T10:15:18.649Z,22.90
2019-01-24T10:17:46.889Z,22.90
2019-01-24T10:20:17.067Z,22.90
2019-01-24T10:22:45.305Z,22.90
2019-01-24T10:25:22.013Z,22.90
2019-01-24T10:27:50.253Z,22.90
2019-01-24T10:30:23.345Z,22.90
2019-01-24T10:32:51.589Z,22.90
2019-01-24T10:35:19.821Z,23.00
2019-01-24T10:37:48.065Z,23.00
2019-01-24T10:40:24.875Z,22.90
2019-01-24T10:42:53.121Z,22.90
2019-01-24T10:45:21.835Z,22.90
2019-01-24T10:47:51.509Z,22.90
2019-01-24T10:50:22.453Z,23.00
2019-01-24T10:52:50.683Z,23.00
2019-01-24T10:55:20.666Z,22.90
2019-01-24T10:57:49.828Z,22.90
2019-01-24T11:00:27.120Z,23.00
2019-01-24T11:02:55.347Z,22.90
2019-01-24T11:05:23.597Z,22.90
2019-01-24T11:07:51.833Z,22.90
2019-01-24T11:10:21.023Z,22.90
2019-01-24T11:12:49.285Z,23.00
2019-01-24T11:15:19.778Z,22.90
2019-01-24T11:17:48.007Z,22.90
2019-01-24T11:20:18.105Z,23.00
2019-01-24T11:22:46.342Z,23.00
2019-01-24T11:25:16.523Z,23.00
2019-01-24T11:27:44.754Z,23.00
2019-01-24T11:30:19.305Z,23.00
2019-01-24T11:32:47.553Z,23.00
2019-01-24T11:35:18.229Z,23.00
2019-01-24T11:37:46.462Z,23.00
2019-01-24T11:40:16.655Z,23.00
2019-01-24T11:42:45.050Z,23.00
2019-01-24T11:45:15.371Z,23.00
2019-01-24T11:47:44.369Z,23.00
2019-01-24T11:50:15.872Z,23.00
2019-01-24T11:52:44.464Z,23.00
2019-01-24T11:55:14.737Z,23.10
2019-01-24T11:57:42.981Z,23.00
2019-01-24T12:00:14.638Z,23.00
2019-01-24T12:02:42.873Z,23.00
2019-01-24T12:05:11.289Z,23.00
2019-01-24T12:07:39.521Z,23.00
2019-01-24T12:10:16.408Z,23.00
2019-01-24T12:12:44.624Z,23.00
2019-01-24T12:15:18.308Z,23.00
2019-01-24T12:17:46.548Z,23.00
2019-01-24T12:20:19.861Z,23.00
2019-01-24T12:22:48.097Z,23.00
2019-01-24T12:25:16.907Z,23.00
2019-01-24T12:27:45.133Z,23.10
2019-01-24T12:30:32.901Z,23.00
2019-01-24T12:33:01.779Z,23.10
2019-01-24T12:35:30.350Z,23.10
2019-01-24T12:37:58.629Z,23.10
2019-01-24T12:40:26.913Z,23.10
2019-01-24T12:42:55.145Z,23.10
2019-01-24T12:45:28.752Z,23.10
2019-01-24T12:47:56.998Z,23.10
2019-01-24T12:50:25.234Z,23.10
2019-01-24T12:52:53.555Z,23.10
2019-01-24T12:55:21.788Z,23.10
2019-01-24T12:57:50.049Z,23.10
2019-01-24T13:00:26.237Z,23.10
2019-01-24T13:02:54.504Z,23.10
2019-01-24T13:05:22.736Z,23.00
2019-01-24T13:07:50.977Z,23.10
2019-01-24T13:10:21.816Z,23.00
2019-01-24T13:12:50.225Z,23.10
2019-01-24T13:15:21.097Z,23.10
2019-01-24T13:17:49.333Z,23.10
2019-01-24T13:20:17.573Z,23.10
2019-01-24T13:22:45.834Z,23.10
2019-01-24T13:25:20.017Z,23.10
2019-01-24T13:27:48.280Z,23.10
2019-01-24T13:30:19.101Z,23.20
2019-01-24T13:32:47.344Z,23.20
2019-01-24T13:35:16.249Z,23.20
2019-01-24T13:37:44.493Z,23.20
2019-01-24T13:40:20.400Z,23.20
2019-01-24T13:42:48.645Z,23.30
2019-01-24T13:45:22.301Z,23.30
2019-01-24T13:47:50.555Z,23.30
2019-01-24T13:50:19.057Z,23.30
2019-01-24T13:52:47.305Z,23.30
2019-01-24T13:55:15.540Z,23.30
2019-01-24T13:57:43.786Z,23.40
2019-01-24T14:00:15.321Z,23.30
2019-01-24T14:02:43.567Z,23.40
2019-01-24T14:05:15.249Z,23.40
2019-01-24T14:07:43.490Z,23.40
2019-01-24T14:10:14.468Z,23.40
2019-01-24T14:12:42.706Z,23.40
2019-01-24T14:15:18.321Z,23.40
2019-01-24T14:17:46.612Z,23.40
2019-01-24T14:20:17.637Z,23.40
2019-01-24T14:22:45.890Z,23.40
2019-01-24T14:25:16.546Z,23.40
2019-01-24T14:27:44.773Z,23.40
2019-01-24T14:30:21.637Z,23.40
2019-01-24T14:32:49.865Z,23.40
2019-01-24T14:35:18.109Z,23.40
2019-01-24T14:37:46.345Z,23.40
2019-01-24T14:40:15.030Z,23.40
2019-01-24T14:42:43.265Z,23.40
2019-01-24T14:45:20.001Z,23.40
2019-01-24T14:47:48.235Z,23.40
2019-01-24T14:50:22.182Z,23.40
2019-01-24T14:52:50.418Z,23.40
2019-01-24T14:55:18.672Z,23.40
2019-01-24T14:57:46.969Z,23.40
2019-01-24T15:00:26.247Z,23.40
2019-01-24T15:02:54.474Z,23.40
2019-01-24T15:05:22.797Z,23.40
2019-01-24T15:07:51.697Z,23.40
2019-01-24T15:10:19.941Z,23.50
2019-01-24T15:12:48.173Z,23.50
2019-01-24T15:15:20.826Z,23.50
2019-01-24T15:17:49.057Z,23.50
2019-01-24T15:20:18.342Z,23.50
2019-01-24T15:22:46.841Z,23.50
2019-01-24T15:25:16.817Z,23.50
2019-01-24T15:27:45.049Z,23.50
2019-01-24T15:30:22.310Z,23.50
2019-01-24T15:32:50.539Z,23.60
2019-01-24T15:35:18.785Z,23.50
2019-01-24T15:37:47.010Z,23.60
2019-01-24T15:40:20.528Z,23.60
2019-01-24T15:42:48.765Z,23.70
2019-01-24T15:45:17.642Z,23.70
2019-01-24T15:47:45.881Z,23.70
2019-01-24T15:50:16.661Z,23.70
2019-01-24T15:52:44.903Z,23.70
2019-01-24T15:55:13.140Z,23.80
2019-01-24T15:57:41.381Z,23.80
2019-01-24T16:00:18.037Z,23.90
2019-01-24T16:02:46.269Z,23.90
2019-01-24T16:05:14.526Z,23.90
2019-01-24T16:07:42.753Z,23.90
2019-01-24T16:10:13.894Z,23.90
2019-01-24T16:12:42.136Z,23.90
2019-01-24T16:15:13.441Z,23.90
2019-01-24T16:17:41.679Z,23.90
2019-01-24T16:20:15.784Z,23.90
2019-01-24T16:22:44.025Z,23.90
2019-01-24T16:25:14.698Z,23.90
2019-01-24T16:27:42.937Z,23.90
2019-01-24T16:30:14.430Z,24.00
2019-01-24T16:32:42.671Z,24.00
2019-01-24T16:35:12.438Z,24.00
2019-01-24T16:37:40.683Z,24.00
2019-01-24T16:40:14.958Z,24.00
2019-01-24T16:42:43.192Z,24.00
2019-01-24T16:45:14.370Z,24.10
2019-01-24T16:47:42.613Z,24.10
2019-01-24T16:50:13.182Z,24.10
2019-01-24T16:52:41.994Z,24.10
2019-01-24T16:55:14.745Z,24.10
2019-01-24T16:57:42.985Z,24.10
2019-01-24T17:00:20.343Z,24.10
2019-01-24T17:02:49.265Z,24.10
2019-01-24T17:05:17.493Z,24.10
2019-01-24T17:07:45.820Z,24.20
2019-01-24T17:10:23.121Z,24.20
2019-01-24T17:12:51.625Z,24.20
2019-01-24T17:15:19.935Z,24.20
2019-01-24T17:17:48.170Z,24.20
2019-01-24T17:20:28.305Z,24.20
2019-01-24T17:22:56.548Z,24.20
2019-01-24T17:25:26.925Z,24.20
2019-01-24T17:27:55.185Z,24.20
2019-01-24T17:30:31.316Z,24.20
2019-01-24T17:32:59.556Z,24.20
2019-01-24T17:35:28.468Z,24.30
2019-01-24T17:37:56.709Z,24.30
2019-01-24T17:40:27.448Z,24.30
2019-01-24T17:42:56.013Z,24.20
2019-01-24T17:45:24.253Z,24.20
2019-01-24T17:47:53.278Z,24.20
2019-01-24T17:50:21.497Z,24.20
2019-01-24T17:52:49.728Z,24.20
2019-01-24T17:55:23.802Z,24.10
2019-01-24T17:57:52.037Z,24.10
2019-01-24T18:00:22.298Z,24.10
2019-01-24T18:02:50.530Z,24.10
2019-01-24T18:05:18.804Z,24.10
2019-01-24T18:07:47.182Z,24.10
2019-01-24T18:10:23.988Z,24.10
2019-01-24T18:12:52.206Z,24.10
2019-01-24T18:15:25.589Z,24.10
2019-01-24T18:17:53.889Z,24.00
2019-01-24T18:20:33.323Z,24.00
2019-01-24T18:23:01.721Z,24.00
2019-01-24T18:25:30.033Z,24.00
2019-01-24T18:27:58.278Z,23.90
2019-01-24T18:30:30.207Z,23.90
2019-01-24T18:32:58.442Z,23.90
2019-01-24T18:35:26.685Z,23.90
2019-01-24T18:37:54.919Z,23.90
2019-01-24T18:40:25.203Z,23.90
2019-01-24T18:42:54.089Z,23.90
2019-01-24T18:45:28.542Z,23.90
2019-01-24T18:47:56.857Z,23.90
2019-01-24T18:50:25.115Z,23.90
2019-01-24T18:52:53.343Z,23.90
2019-01-24T18:55:21.581Z,23.90
2019-01-24T18:57:49.812Z,23.90
2019-01-24T19:00:21.841Z,23.90
2019-01-24T19:02:50.070Z,23.90
2019-01-24T19:05:18.404Z,23.90
2019-01-24T19:07:46.633Z,23.90
2019-01-24T19:10:14.930Z,23.80
2019-01-24T19:12:43.193Z,23.80
2019-01-24T19:15:17.405Z,23.80
2019-01-24T19:17:46.479Z,23.80
2019-01-24T19:20:15.465Z,23.80
2019-01-24T19:22:43.769Z,23.80
2019-01-24T19:25:13.870Z,23.80
2019-01-24T19:27:42.113Z,23.80
2019-01-24T19:30:22.130Z,23.80
2019-01-24T19:32:50.388Z,23.80
2019-01-24T19:35:18.633Z,23.80
2019-01-24T19:37:46.871Z,23.70
2019-01-24T19:40:20.058Z,23.80
2019-01-24T19:42:48.289Z,23.80
2019-01-24T19:45:21.583Z,23.80
2019-01-24T19:47:49.825Z,23.70
2019-01-24T19:50:20.006Z,23.70
2019-01-24T19:52:48.406Z,23.70
2019-01-24T19:55:16.655Z,23.70
2019-01-24T19:57:44.889Z,23.70
2019-01-24T20:00:25.134Z,23.70
2019-01-24T20:02:53.370Z,23.70
2019-01-24T20:05:21.613Z,23.70
2019-01-24T20:07:49.848Z,23.70
2019-01-24T20:10:23.648Z,23.70
2019-01-24T20:12:51.985Z,23.70
2019-01-24T20:15:22.184Z,23.70
2019-01-24T20:17:50.417Z,23.70
2019-01-24T20:20:18.725Z,23.70
2019-01-24T20:22:47.129Z,23.80
2019-01-24T20:25:17.500Z,23.80
2019-01-24T20:27:45.741Z,23.80
2019-01-24T20:30:19.108Z,23.80
2019-01-24T20:32:47.353Z,23.80
2019-01-24T20:35:27.801Z,23.80
2019-01-24T20:37:56.053Z,23.80
2019-01-24T20:40:24.287Z,23.80
2019-01-24T20:42:52.530Z,23.80
2019-01-24T20:45:20.757Z,23.80
2019-01-24T20:47:49.009Z,23.80
2019-01-24T20:50:17.301Z,23.80
2019-01-24T20:52:45.545Z,23.80
2019-01-24T20:55:16.743Z,23.80
2019-01-24T20:57:45.028Z,23.80
2019-01-24T21:00:16.322Z,23.80
2019-01-24T21:02:44.837Z,23.80
2019-01-24T21:05:15.865Z,23.80
2019-01-24T21:07:44.190Z,23.80
2019-01-24T21:10:18.100Z,23.80
2019-01-24T21:12:46.355Z,23.80
2019-01-24T21:15:18.696Z,23.40
2019-01-24T21:17:46.937Z,23.20
2019-01-24T21:20:21.317Z,23.20
2019-01-24T21:22:49.565Z,23.20
2019-01-24T21:25:22.926Z,23.30
2019-01-24T21:27:51.178Z,23.30
2019-01-24T21:30:36.966Z,23.30
2019-01-24T21:33:06.556Z,23.40
2019-01-24T21:35:34.808Z,23.40
2019-01-24T21:38:03.054Z,23.40
2019-01-24T21:40:31.857Z,23.40
2019-01-24T21:43:00.114Z,23.40
2019-01-24T21:45:33.231Z,23.40
2019-01-24T21:48:01.490Z,23.40
2019-01-24T21:50:31.561Z,23.40
2019-01-24T21:52:59.801Z,23.40
2019-01-24T21:55:28.051Z,23.40
2019-01-24T21:57:56.301Z,23.40
2019-01-24T22:00:28.503Z,23.40
2019-01-24T22:02:56.757Z,23.40
2019-01-24T22:05:25.059Z,23.40
2019-01-24T22:07:53.316Z,23.40
2019-01-24T22:10:29.292Z,23.30
2019-01-24T22:12:57.549Z,23.30
2019-01-24T22:15:27.717Z,23.30
2019-01-24T22:17:55.969Z,23.30
2019-01-24T22:20:24.209Z,23.30
2019-01-24T22:22:53.021Z,23.30
2019-01-24T22:25:30.054Z,23.30
2019-01-24T22:27:58.302Z,23.30
2019-01-24T22:30:30.521Z,23.30
2019-01-24T22:32:58.772Z,23.20
2019-01-24T22:35:27.018Z,23.20
2019-01-24T22:37:55.264Z,23.20
2019-01-24T22:40:23.505Z,23.20
2019-01-24T22:42:51.767Z,23.20
2019-01-24T22:45:22.138Z,23.20
2019-01-24T22:47:50.385Z,23.20
2019-01-24T22:50:18.627Z,23.20
2019-01-24T22:52:47.119Z,23.20
2019-01-24T22:55:15.370Z,23.20
2019-01-24T22:57:43.596Z,23.20
2019-01-24T23:00:53.035Z,23.20
2019-01-24T23:03:24.717Z,23.20
2019-01-24T23:05:52.954Z,23.10
2019-01-24T23:08:21.214Z,23.10
2019-01-24T23:10:49.449Z,23.10
2019-01-24T23:13:17.694Z,23.10
2019-01-24T23:15:45.943Z,23.10
2019-01-24T23:18:14.176Z,23.10
2019-01-24T23:20:42.421Z,23.10
2019-01-24T23:23:10.997Z,23.10
2019-01-24T23:25:39.238Z,23.00
2019-01-24T23:28:07.468Z,23.10
2019-01-24T23:30:35.720Z,23.00
2019-01-24T23:33:04.306Z,23.10
2019-01-24T23:35:32.545Z,23.00
2019-01-24T23:38:00.780Z,23.00
2019-01-24T23:40:29.032Z,23.10
2019-01-24T23:42:57.265Z,23.00
2019-01-24T23:45:25.509Z,23.00
2019-01-24T23:47:53.744Z,23.00
2019-01-24T23:50:21.995Z,23.00
2019-01-24T23:52:50.237Z,23.00
2019-01-24T23:55:18.489Z,23.00
2019-01-24T23:57:46.721Z,23.00
